Flight Track Log - Related Links

Times and Time Zones

All times are in EDT time to prevent confusion due to time zone crossing. See the UAL3598 flight status page for this flight to view local times or setup timezone preferences in your user account.

Time Position Orientation Groundspeed Altitude Reporting Facility
EDT Latitude Longitude Course Direction KTS MPH feet Rate Location/Type
Sat 10:29:11 PM 40.7000 -74.2333 270° West 147 169 2,000  Level New York TRACON
Sat 10:30:11 PM 40.7000 -74.3000 270° West 168 193 3,200 1,100 Climbing New York TRACON
Sat 10:31:11 PM 40.7000 -74.3500 270° West 182 209 4,200 1,050 Climbing New York TRACON
Sat 10:32:11 PM 40.7500 -74.3667 346° North 175 201 5,300 1,053 Climbing New York TRACON
Sat 10:33:05 PM 40.8000 -74.3667 360° North 183 211 6,200 1,000 Climbing New York TRACON
Sat 10:34:05 PM 40.8500 -74.3833 346° North 190 219 7,200 1,063 Climbing New York TRACON
Sat 10:34:41 PM 40.8767 -74.3919 346° North 187 215 7,900 1,113 Climbing New York Center
Sat 10:35:42 PM 40.9261 -74.4119 343° North 187 215 9,000 1,131 Climbing New York Center
Sat 10:36:43 PM 40.9800 -74.4333 343° North 187 215 10,200 1,082 Climbing New York Center
Sat 10:37:44 PM 41.0325 -74.4514 345° North 194 223 11,200 885 Climbing New York Center
Sat 10:38:45 PM 41.0856 -74.4678 347° North 193 222 12,000 836 Climbing New York Center
Sat 10:39:46 PM 41.1317 -74.5075 327° Northwest 198 228 12,900 836 Climbing New York Center
Sat 10:40:47 PM 41.1686 -74.5597 313° West 192 221 13,700 541 Climbing New York Center
Sat 10:41:48 PM 41.2056 -74.6103 314° West 196 226 14,000 148 Climbing New York Center
Sat 10:42:49 PM 41.2511 -74.6681 316° Northwest 224 258 14,000  Level New York Center
Sat 10:43:50 PM 41.2981 -74.7333 314° West 227 261 14,000  Level New York Center
Sat 10:44:51 PM 41.3425 -74.7939 314° West 227 261 14,000  Level New York Center
Sat 10:45:52 PM 41.3878 -74.8539 315° West 228 262 14,000  Level New York Center
Sat 10:46:53 PM 41.4328 -74.9153 314° West 229 264 14,000  Level New York Center
Sat 10:47:54 PM 41.4775 -74.9769 314° West 233 268 14,000 -246 Level New York Center
Sat 10:48:55 PM 41.5256 -75.0406 315° West 232 267 13,500 -836 Descending New York Center
Sat 10:49:56 PM 41.5761 -75.1067 316° Northwest 241 277 12,300 -1,180 Descending New York Center
Sat 10:50:57 PM 41.6231 -75.1719 314° West 248 285 11,100 -689 Descending New York Center
Sat 10:51:58 PM 41.6697 -75.2386 313° West 235 270 10,900 -98 Descending New York Center
Sat 10:52:59 PM 41.7164 -75.3000 316° Northwest 229 264 10,900  Level New York Center
Sat 10:54:00 PM 41.7578 -75.3569 314° West 224 258 10,900 -197 Level New York Center
Sat 10:55:01 PM 41.8031 -75.4175 315° West 222 255 10,500 -738 Descending New York Center
Sat 10:56:02 PM 41.8489 -75.4808 314° West 226 260 9,400 -1,033 Descending New York Center
Sat 10:57:03 PM 41.8914 -75.5397 314° West 229 264 8,400 -1,131 Descending New York Center
Sat 10:58:04 PM 41.9381 -75.6033 315° West 229 264 7,100 -1,180 Descending New York Center
Sat 10:59:05 PM 41.9836 -75.6683 313° West 229 264 6,000 -1,131 Descending New York Center
Sat 11:00:06 PM 42.0264 -75.7278 314° West 229 264 4,800 -934 Descending New York Center
Sat 11:01:07 PM 42.0692 -75.7903 313° West 228 262 4,100 -393 Descending New York Center
Sat 11:02:08 PM 42.0972 -75.8544 301° West 213 245 4,000 -246 Descending New York Center
Sat 11:03:09 PM 42.1183 -75.9050 299° West 187 215 3,600 -541 Descending New York Center
Sat 11:04:10 PM 42.1467 -75.9247 333° Northwest 143 165 2,900 -590 Descending New York Center
Sat 11:05:11 PM 42.1675 -75.9433 326° Northwest 114 131 2,400 -492 Descending New York Center
Sat 11:06:12 PM 42.1900 -75.9614 329° Northwest 101 116 1,900 -492 Descending New York Center

Login

Don't have an account? Register now (free) for customized features, flight alerts, and more!